Time;durP1;ratioP1;P1;durP2;ratioP2;P2;SDS_P1;SDS_P2;PMS_P1;PMS_P2;Temp;Humidity;BMP_temperature;BMP_pressure;BME280_temperature;BME280_humidity;BME280_pressure;Samples;Min_cycle;Max_cycle;Signal;HPM_P1;HPM_P2
2023/05/22 00:01:28;;;;;;;14.90;6.00;;;;;;;11.55;84.26;99254.98;274091;1257;22336;-85
2023/05/22 00:07:50;;;;;;;6.80;5.40;;;;;;;11.43;84.84;99251.46;273008;1266;22573;-84
2023/05/22 00:13:50;;;;;;;15.20;6.30;;;;;;;11.34;85.39;99249.86;270963;1267;22447;-85
2023/05/22 00:20:12;;;;;;;10.20;5.70;;;;;;;11.26;85.86;99246.48;271427;1260;23520;-84
2023/05/22 00:27:34;;;;;;;9.10;6.20;;;;;;;11.17;86.28;99243.00;271009;1269;22557;-85
2023/05/22 00:34:15;;;;;;;9.90;6.30;;;;;;;11.02;86.61;99242.58;272854;1265;22362;-85
2023/05/22 00:40:58;;;;;;;9.30;6.00;;;;;;;10.88;86.86;99239.73;273556;1258;22386;-85
2023/05/22 00:47:22;;;;;;;8.80;6.40;;;;;;;10.79;87.63;99242.04;273538;1256;23663;-85
2023/05/22 00:53:24;;;;;;;10.60;6.10;;;;;;;10.77;88.02;99244.91;271637;1256;22555;-86
2023/05/22 01:00:05;;;;;;;8.30;5.70;;;;;;;10.80;88.10;99244.16;273890;1259;22348;-85
2023/05/22 01:06:07;;;;;;;15.70;5.80;;;;;;;10.79;88.34;99238.75;274114;1266;22467;-86
2023/05/22 01:12:43;;;;;;;11.20;6.00;;;;;;;10.71;88.31;99235.11;274166;1257;22217;-86
2023/05/22 01:19:17;;;;;;;8.80;5.40;;;;;;;10.65;88.69;99228.45;274086;1266;22420;-85
2023/05/22 01:26:01;;;;;;;9.50;5.90;;;;;;;10.58;88.83;99227.49;274026;1258;22409;-86
2023/05/22 01:32:27;;;;;;;8.20;5.90;;;;;;;10.51;89.04;99227.15;274179;1266;22322;-86
2023/05/22 01:38:29;;;;;;;9.90;5.70;;;;;;;10.44;89.15;99225.02;273902;1266;22223;-86
2023/05/22 01:44:30;;;;;;;11.20;6.30;;;;;;;10.36;89.53;99225.60;272450;1257;23123;-86
2023/05/22 01:50:31;;;;;;;10.80;6.10;;;;;;;10.25;89.50;99227.77;271374;1267;22589;-85
2023/05/22 01:56:55;;;;;;;10.40;5.60;;;;;;;10.10;89.74;99227.89;272924;1250;22327;-86
2023/05/22 02:03:20;;;;;;;8.90;6.00;;;;;;;9.96;90.24;99226.55;273953;1251;23202;-85
2023/05/22 02:10:02;;;;;;;10.40;6.60;;;;;;;9.83;90.57;99224.91;272983;1271;22465;-85
2023/05/22 02:16:03;;;;;;;10.40;6.70;;;;;;;9.71;90.61;99224.39;272939;1262;23502;-86
2023/05/22 02:22:04;;;;;;;11.70;6.30;;;;;;;9.62;90.84;99226.95;271841;1262;22263;-86
2023/05/22 02:28:26;;;;;;;11.00;6.90;;;;;;;9.53;91.30;99224.23;270233;1256;22496;-86
2023/05/22 02:34:27;;;;;;;14.70;7.40;;;;;;;9.47;91.75;99222.93;269890;1272;22604;-86
2023/05/22 02:40:28;;;;;;;8.40;6.30;;;;;;;9.43;92.19;99221.84;270506;1266;22602;-86
2023/05/22 02:46:29;;;;;;;11.50;6.70;;;;;;;9.42;92.22;99213.55;273800;1267;22334;-87
2023/05/22 02:52:30;;;;;;;13.40;7.00;;;;;;;9.45;92.19;99212.50;273538;1267;22764;-86
2023/05/22 02:58:53;;;;;;;8.30;6.00;;;;;;;9.49;92.18;99207.65;272441;1266;22618;-87
2023/05/22 03:04:53;;;;;;;9.70;5.50;;;;;;;9.53;91.96;99208.90;273251;1256;22226;-88
2023/05/22 03:10:58;;;;;;;8.00;5.50;;;;;;;9.59;91.71;99211.59;274213;1256;22618;-87
2023/05/22 03:16:59;;;;;;;7.30;5.10;;;;;;;9.64;91.52;99212.55;274111;1267;22181;-86
2023/05/22 03:23:00;;;;;;;11.90;5.60;;;;;;;9.62;91.66;99210.55;274139;1266;23624;-86
2023/05/22 03:29:01;;;;;;;9.70;5.40;;;;;;;9.61;91.76;99214.59;274020;1261;22219;-85
2023/05/22 03:35:04;;;;;;;7.90;4.20;;;;;;;9.62;92.24;99220.77;274008;1256;22662;-85
2023/05/22 03:41:06;;;;;;;7.20;4.20;;;;;;;9.70;93.20;99223.11;274023;1256;23407;-85
2023/05/22 03:47:07;;;;;;;8.80;4.50;;;;;;;9.75;93.44;99223.30;273976;1257;22368;-85
2023/05/22 03:53:08;;;;;;;8.50;4.70;;;;;;;9.82;93.45;99224.41;274095;1262;22484;-84
2023/05/22 03:59:11;;;;;;;7.20;4.80;;;;;;;9.89;93.66;99227.75;273928;1270;22346;-86
2023/05/22 04:05:13;;;;;;;9.00;5.30;;;;;;;9.96;93.80;99233.50;274157;1256;22503;-84
2023/05/22 04:11:14;;;;;;;10.40;5.60;;;;;;;10.02;93.37;99228.60;273962;1266;22209;-85
2023/05/22 04:17:16;;;;;;;8.60;5.00;;;;;;;10.04;92.80;99226.61;274128;1265;22411;-86
2023/05/22 04:23:16;;;;;;;9.90;4.80;;;;;;;10.11;92.87;99223.54;273819;1266;22532;-86
2023/05/22 04:29:58;;;;;;;9.40;5.70;;;;;;;10.23;93.11;99220.77;272613;1266;23082;-86
2023/05/22 04:36:09;;;;;;;11.90;5.20;;;;;;;10.39;93.16;99213.44;272586;1266;22308;-87
2023/05/22 04:42:29;;;;;;;9.00;5.90;;;;;;;10.57;92.82;99212.30;274018;1266;22338;-86
2023/05/22 04:48:31;;;;;;;11.40;5.30;;;;;;;10.76;92.57;99208.57;274203;1256;22236;-86
2023/05/22 04:54:33;;;;;;;11.60;5.90;;;;;;;10.94;92.28;99205.77;273981;1269;22360;-86
2023/05/22 05:00:34;;;;;;;10.50;5.60;;;;;;;11.12;92.32;99203.48;273139;1269;22373;-86
2023/05/22 05:06:36;;;;;;;10.90;6.20;;;;;;;11.32;92.15;99200.83;273184;1266;22335;-86
2023/05/22 05:12:37;;;;;;;8.60;5.80;;;;;;;11.56;92.04;99195.30;272827;1263;22321;-87
2023/05/22 05:18:38;;;;;;;9.40;5.80;;;;;;;11.78;91.55;99193.89;274012;1256;22224;-88
2023/05/22 05:24:40;;;;;;;6.90;5.10;;;;;;;12.04;91.54;99203.77;273897;1269;23248;-87
2023/05/22 05:30:41;;;;;;;7.80;5.10;;;;;;;12.36;91.26;99207.09;272856;1256;22398;-87
2023/05/22 05:37:05;;;;;;;9.10;6.20;;;;;;;12.63;90.59;99204.20;274078;1266;22966;-88
2023/05/22 05:43:07;;;;;;;6.70;5.00;;;;;;;12.85;90.07;99205.13;274033;1267;22340;-87
2023/05/22 05:49:10;;;;;;;10.90;5.10;;;;;;;13.05;89.52;99207.98;274077;1260;22284;-87
2023/05/22 05:55:11;;;;;;;8.40;4.60;;;;;;;13.26;88.92;99202.11;274020;1266;22306;-86
2023/05/22 06:08:57;;;;;;;8.10;4.40;;;;;;;13.73;87.84;99194.85;272953;1271;22618;-88
2023/05/22 06:15:57;;;;;;;7.10;4.50;;;;;;;14.00;88.03;99196.69;271623;1267;22278;-88
2023/05/22 06:21:58;;;;;;;6.30;4.30;;;;;;;14.28;86.94;99198.91;272372;1266;22341;-88
2023/05/22 06:27:59;;;;;;;8.50;4.60;;;;;;;14.54;86.72;99199.13;273845;1259;22234;-88
2023/05/22 06:34:53;;;;;;;7.00;4.40;;;;;;;14.79;86.10;99191.91;273756;1272;22231;-87
2023/05/22 06:40:55;;;;;;;10.20;5.00;;;;;;;15.17;85.65;99187.92;274141;1266;22330;-89
2023/05/22 06:47:50;;;;;;;11.90;4.90;;;;;;;15.61;84.72;99184.80;273351;1270;22517;-88
2023/05/22 06:54:19;;;;;;;8.30;4.70;;;;;;;16.10;84.06;99189.66;272884;1269;22349;-88
2023/05/22 07:00:22;;;;;;;8.40;3.70;;;;;;;16.68;82.98;99189.39;272460;1267;22330;-89
2023/05/22 07:06:37;;;;;;;8.20;3.60;;;;;;;17.34;81.61;99186.27;273885;1272;22340;-88
2023/05/22 07:27:31;;;;;;;6.70;3.30;;;;;;;19.28;77.94;99171.52;270680;1270;22557;-88
2023/05/22 07:33:58;;;;;;;8.80;3.60;;;;;;;19.61;75.90;99169.30;270677;1270;24442;-88
2023/05/22 07:40:02;;;;;;;5.60;3.80;;;;;;;19.96;74.89;99169.36;271020;1266;22630;-89
2023/05/22 07:46:05;;;;;;;6.50;3.50;;;;;;;20.33;73.60;99169.58;272432;1267;22340;-88
2023/05/22 07:52:10;;;;;;;5.20;2.90;;;;;;;20.73;71.99;99169.02;274002;1266;23655;-88
2023/05/22 07:58:16;;;;;;;5.10;3.20;;;;;;;20.85;69.28;99168.52;273304;1267;22573;-87
2023/05/22 08:04:18;;;;;;;6.60;3.30;;;;;;;20.90;67.95;99174.98;272138;1267;22225;-89
2023/05/22 08:10:47;;;;;;;7.10;3.70;;;;;;;20.77;64.35;99174.48;273805;1273;22760;-88
2023/05/22 08:17:00;;;;;;;8.90;3.70;;;;;;;20.59;61.57;99167.18;272950;1257;22215;-89
2023/05/22 08:23:06;;;;;;;6.60;3.10;;;;;;;20.67;61.71;99167.84;273967;1267;22189;-87
2023/05/22 08:29:08;;;;;;;4.40;2.80;;;;;;;20.79;59.61;99170.23;273909;1267;22415;-88
2023/05/22 08:59:05;;;;;;;3.70;2.60;;;;;;;20.82;55.75;99155.00;273705;1267;22323;-87
2023/05/22 09:05:07;;;;;;;5.40;2.50;;;;;;;20.85;54.41;99152.30;272809;1270;22582;-85
2023/05/22 09:11:09;;;;;;;4.10;2.20;;;;;;;21.00;54.04;99147.38;271632;1267;22462;-87
2023/05/22 09:17:14;;;;;;;4.30;2.60;;;;;;;21.25;52.93;99143.48;272636;1266;23094;-87
2023/05/22 09:23:20;;;;;;;3.70;2.50;;;;;;;21.51;51.66;99139.58;273462;1266;22455;-86
2023/05/22 09:29:22;;;;;;;4.50;2.50;;;;;;;21.77;51.23;99126.67;273702;1267;22353;-86
2023/05/22 09:35:54;;;;;;;3.70;2.40;;;;;;;21.99;50.61;99122.08;271990;1270;22579;-86
2023/05/22 09:49:24;;;;;;;5.80;2.80;;;;;;;22.34;48.39;99122.98;272567;1267;22559;-85
2023/05/22 09:56:16;;;;;;;3.80;2.70;;;;;;;22.78;47.68;99120.22;268168;1256;4398597;-85
2023/05/22 10:02:21;;;;;;;4.90;3.20;;;;;;;22.93;47.44;99115.05;272320;1270;22551;-86
2023/05/22 10:09:00;;;;;;;8.60;2.80;;;;;;;23.45;47.65;99108.89;272193;1272;22182;-86
2023/05/22 10:15:01;;;;;;;7.10;3.10;;;;;;;23.69;47.15;99109.13;274037;1267;22200;-87
2023/05/22 10:29:42;;;;;;;5.50;2.80;;;;;;;23.25;45.80;99107.56;273637;1253;23497;-86
2023/05/22 10:36:10;;;;;;;5.50;3.30;;;;;;;23.40;45.65;99102.75;274109;1269;22379;-85
2023/05/22 10:50:16;;;;;;;10.80;3.70;;;;;;;23.90;44.72;99097.31;272241;1266;22544;-86
2023/05/22 11:04:24;;;;;;;4.70;2.40;;;;;;;24.62;44.55;99090.52;274091;1266;23009;-87
2023/05/22 11:11:30;;;;;;;5.00;2.80;;;;;;;25.03;43.94;99087.37;272156;1266;23333;-87
2023/05/22 11:17:50;;;;;;;8.00;2.70;;;;;;;24.92;43.13;99080.76;270364;1262;23937;-85
2023/05/22 11:23:52;;;;;;;4.00;2.20;;;;;;;25.07;42.25;99070.81;272252;1266;25353;-86
2023/05/22 11:29:54;;;;;;;5.80;2.30;;;;;;;25.42;42.44;99060.96;272052;1269;23723;-86
2023/05/22 11:35:55;;;;;;;6.20;2.80;;;;;;;25.68;41.36;99059.56;273337;1266;22410;-86
2023/05/22 11:41:59;;;;;;;4.70;2.80;;;;;;;25.90;41.18;99057.05;274116;1270;23297;-86
2023/05/22 11:56:02;;;;;;;4.60;1.90;;;;;;;26.13;40.21;99056.91;274107;1266;22332;-86
2023/05/22 12:09:57;;;;;;;3.30;2.20;;;;;;;25.50;38.71;99053.67;274225;1266;23860;-86
2023/05/22 12:15:59;;;;;;;3.00;2.10;;;;;;;25.21;38.44;99053.76;273886;1266;23162;-86
2023/05/22 12:29:17;;;;;;;6.70;2.80;;;;;;;24.45;38.09;99043.54;273391;1266;22556;-87
2023/05/22 12:36:09;;;;;;;4.70;2.70;;;;;;;24.24;37.76;99037.86;273955;1266;22193;-86
2023/05/22 12:42:36;;;;;;;3.50;2.30;;;;;;;24.14;37.84;99030.15;273506;1266;22335;-86
2023/05/22 12:49:05;;;;;;;5.90;2.90;;;;;;;24.06;38.15;99017.27;274122;1257;22245;-86
2023/05/22 12:55:37;;;;;;;10.90;3.10;;;;;;;23.98;38.38;99009.84;273907;1270;22219;-87
2023/05/22 13:01:38;;;;;;;5.00;2.60;;;;;;;23.79;37.53;99013.29;274145;1266;22344;-86
2023/05/22 13:08:25;;;;;;;3.30;2.70;;;;;;;23.61;38.04;99013.06;274153;1266;23341;-86
2023/05/22 13:14:30;;;;;;;5.80;2.70;;;;;;;23.74;38.41;99009.20;273995;1266;23489;-86
2023/05/22 13:20:33;;;;;;;9.50;3.10;;;;;;;23.80;38.88;99004.55;273328;1266;22527;-87
2023/05/22 13:26:35;;;;;;;6.40;2.80;;;;;;;23.75;38.89;98996.45;272608;1266;23201;-84
2023/05/22 13:32:36;;;;;;;5.30;2.70;;;;;;;23.55;38.66;98992.59;272016;1266;22542;-85
2023/05/22 13:38:37;;;;;;;5.70;3.10;;;;;;;23.50;39.12;98985.44;270973;1253;24255;-86
2023/05/22 13:44:38;;;;;;;3.60;2.50;;;;;;;23.32;38.80;98981.44;274081;1265;22391;-85
2023/05/22 13:50:39;;;;;;;6.30;2.70;;;;;;;23.14;39.30;98975.52;272903;1257;22548;-85
2023/05/22 13:56:40;;;;;;;8.20;3.50;;;;;;;23.09;39.41;98973.20;272287;1256;22335;-85
2023/05/22 14:02:41;;;;;;;7.10;3.10;;;;;;;22.91;39.37;98969.90;273774;1253;22591;-85
2023/05/22 14:08:42;;;;;;;7.60;2.80;;;;;;;22.69;39.63;98960.72;273214;1254;22327;-85
2023/05/22 14:14:43;;;;;;;7.10;3.20;;;;;;;22.49;40.00;98963.36;273946;1256;23056;-88
2023/05/22 14:20:44;;;;;;;10.50;3.30;;;;;;;22.38;40.37;98959.08;274139;1253;22932;-88
2023/05/22 14:26:46;;;;;;;4.50;3.20;;;;;;;22.40;41.00;98952.73;274016;1266;22273;-87
2023/05/22 14:32:47;;;;;;;5.80;2.70;;;;;;;22.35;41.09;98949.94;273832;1266;22473;-87
2023/05/22 14:38:48;;;;;;;7.70;2.90;;;;;;;22.23;41.21;98944.42;273302;1254;22487;-85
2023/05/22 14:44:50;;;;;;;10.10;3.30;;;;;;;22.10;41.68;98938.83;272537;1266;25388;-86
2023/05/22 14:50:54;;;;;;;8.80;2.70;;;;;;;22.05;41.56;98937.05;272497;1257;22348;-85
2023/05/22 14:56:58;;;;;;;5.30;3.00;;;;;;;22.02;41.64;98938.83;273298;1263;22451;-86
2023/05/22 15:03:01;;;;;;;3.80;2.60;;;;;;;22.06;41.79;98933.65;273547;1266;23627;-87
2023/05/22 15:09:02;;;;;;;6.30;3.50;;;;;;;22.22;42.00;98925.42;273324;1266;23586;-85
2023/05/22 15:15:04;;;;;;;7.40;3.60;;;;;;;22.39;42.34;98929.95;273565;1267;22334;-84
2023/05/22 15:21:05;;;;;;;6.00;3.50;;;;;;;22.43;42.52;98921.42;274029;1265;22534;-85
2023/05/22 15:27:06;;;;;;;3.20;2.80;;;;;;;22.44;42.35;98919.72;274031;1254;23220;-83
2023/05/22 15:33:07;;;;;;;8.80;2.90;;;;;;;22.25;41.87;98919.66;274102;1266;22959;-83
2023/05/22 15:39:08;;;;;;;4.40;2.70;;;;;;;21.98;41.77;98911.88;273550;1266;22487;-83
2023/05/22 15:45:09;;;;;;;8.70;3.20;;;;;;;21.84;42.02;98912.39;273912;1263;22332;-84
2023/05/22 15:51:11;;;;;;;5.20;2.90;;;;;;;21.71;42.42;98910.73;273427;1266;22381;-83
2023/05/22 15:57:27;;;;;;;7.50;3.10;;;;;;;21.60;42.44;98909.27;271924;1263;22572;-84
2023/05/22 16:04:00;;;;;;;7.60;3.30;;;;;;;21.46;42.68;98901.23;271020;1260;26564;-85
2023/05/22 16:10:04;;;;;;;5.40;3.20;;;;;;;21.31;42.88;98897.96;271775;1266;25316;-85
2023/05/22 16:16:05;;;;;;;5.30;3.00;;;;;;;21.14;43.06;98894.96;271306;1257;22495;-85
2023/05/22 16:22:07;;;;;;;4.10;3.10;;;;;;;20.94;43.57;98897.98;271569;1251;25073;-85
2023/05/22 16:28:09;;;;;;;5.00;3.40;;;;;;;20.80;43.93;98899.69;265593;1256;10001448;-85
2023/05/22 16:34:11;;;;;;;4.80;3.00;;;;;;;20.68;44.14;98893.70;273963;1266;23593;-85
2023/05/22 16:40:12;;;;;;;7.60;3.60;;;;;;;20.58;44.34;98896.50;274027;1266;22201;-87
2023/05/22 16:46:13;;;;;;;8.00;3.00;;;;;;;20.44;44.43;98897.31;273935;1263;22338;-85
2023/05/22 16:52:15;;;;;;;7.60;3.20;;;;;;;20.32;44.61;98900.71;273988;1266;22285;-84
2023/05/22 16:58:16;;;;;;;8.60;3.40;;;;;;;20.19;44.94;98902.35;273955;1255;22451;-86
2023/05/22 17:04:19;;;;;;;9.10;3.20;;;;;;;20.06;45.44;98895.21;274031;1266;22402;-86
2023/05/22 17:10:20;;;;;;;7.10;3.40;;;;;;;19.95;45.71;98898.56;273903;1256;22970;-86
2023/05/22 17:16:21;;;;;;;7.90;4.00;;;;;;;19.84;46.07;98904.74;274003;1257;22349;-85
2023/05/22 17:22:22;;;;;;;7.80;3.40;;;;;;;19.72;46.28;98907.30;273810;1256;22234;-85
2023/05/22 17:28:23;;;;;;;11.50;3.60;;;;;;;19.62;46.56;98908.34;274102;1267;22423;-85
2023/05/22 17:34:24;;;;;;;4.90;3.20;;;;;;;19.51;46.87;98912.92;274010;1259;22388;-87
2023/05/22 17:40:25;;;;;;;11.90;3.60;;;;;;;19.41;47.14;98916.04;273859;1266;22382;-84
2023/05/22 17:46:26;;;;;;;10.00;3.80;;;;;;;19.31;47.41;98916.92;273875;1266;22331;-85
2023/05/22 17:52:29;;;;;;;6.00;3.80;;;;;;;19.18;47.72;98910.33;273714;1266;22765;-85
2023/05/22 17:58:30;;;;;;;8.90;3.70;;;;;;;19.05;48.12;98906.85;273849;1259;22392;-85
2023/05/22 18:04:31;;;;;;;7.70;3.70;;;;;;;18.89;48.59;98902.88;273829;1267;23471;-85
2023/05/22 18:10:32;;;;;;;9.60;4.50;;;;;;;18.70;49.01;98900.87;273987;1266;22174;-84
2023/05/22 18:16:33;;;;;;;11.30;3.50;;;;;;;18.50;49.57;98898.95;273796;1259;23756;-84
2023/05/22 18:22:37;;;;;;;4.80;3.50;;;;;;;18.30;50.06;98894.27;272977;1267;22655;-84
2023/05/22 18:28:38;;;;;;;12.20;7.00;;;;;;;18.10;50.46;98892.02;272045;1260;22619;-84
2023/05/22 18:34:39;;;;;;;11.50;6.70;;;;;;;17.86;51.12;98889.27;273233;1256;22452;-84
2023/05/22 18:40:39;;;;;;;14.90;8.00;;;;;;;17.61;51.87;98893.79;273876;1259;23188;-84
2023/05/22 18:46:41;;;;;;;10.10;5.50;;;;;;;17.35;52.66;98893.13;273663;1267;22689;-84
2023/05/22 18:52:41;;;;;;;8.10;5.10;;;;;;;17.09;53.45;98895.46;273902;1258;22263;-83
2023/05/22 18:58:42;;;;;;;9.60;5.30;;;;;;;16.83;54.57;98893.04;273881;1267;22384;-84
2023/05/22 19:04:45;;;;;;;8.90;5.10;;;;;;;16.62;55.01;98889.02;273959;1266;22355;-85
2023/05/22 19:10:46;;;;;;;8.70;5.60;;;;;;;16.47;55.50;98891.44;273993;1266;22179;-85
2023/05/22 19:16:46;;;;;;;9.10;5.10;;;;;;;16.33;56.07;98893.88;273848;1266;22365;-84
2023/05/22 19:22:49;;;;;;;10.60;5.20;;;;;;;16.20;56.63;98893.84;273885;1266;22285;-84
2023/05/22 19:28:50;;;;;;;8.10;5.70;;;;;;;16.08;57.04;98894.94;274041;1256;23417;-85
2023/05/22 19:34:51;;;;;;;11.40;6.40;;;;;;;15.98;57.23;98898.38;273913;1253;22429;-84
2023/05/22 19:40:53;;;;;;;10.80;6.70;;;;;;;15.82;57.76;98903.38;273972;1266;22283;-84
2023/05/22 19:46:55;;;;;;;11.70;6.00;;;;;;;15.64;58.71;98900.17;273899;1266;22343;-83
2023/05/22 19:52:57;;;;;;;11.20;5.70;;;;;;;15.49;60.23;98897.19;273689;1265;23591;-83
2023/05/22 19:58:59;;;;;;;10.60;5.90;;;;;;;15.31;61.60;98899.22;273915;1266;22341;-83
2023/05/22 20:05:00;;;;;;;12.90;6.10;;;;;;;15.21;63.97;98900.72;273960;1266;23008;-83
2023/05/22 20:11:01;;;;;;;10.10;6.00;;;;;;;15.05;64.68;98897.56;273760;1266;22350;-83
2023/05/22 20:17:02;;;;;;;11.60;6.60;;;;;;;14.84;64.42;98896.79;273897;1266;22257;-83
2023/05/22 20:23:03;;;;;;;9.70;5.40;;;;;;;14.65;64.55;98893.46;273948;1266;22350;-83
2023/05/22 20:29:04;;;;;;;10.60;6.40;;;;;;;14.42;66.13;98891.88;273774;1266;22329;-83
2023/05/22 20:35:06;;;;;;;11.70;6.80;;;;;;;14.14;66.42;98889.33;273854;1258;23835;-83
2023/05/22 20:41:11;;;;;;;10.00;7.20;;;;;;;13.88;67.41;98886.20;273967;1256;22288;-83
2023/05/22 20:47:12;;;;;;;11.40;6.80;;;;;;;13.69;68.41;98880.06;273895;1267;22444;-83
2023/05/22 20:53:33;;;;;;;12.90;7.90;;;;;;;13.57;69.25;98884.04;274109;1256;22441;-83
2023/05/22 20:59:36;;;;;;;11.40;6.80;;;;;;;13.45;69.27;98881.31;274107;1267;22322;-82
2023/05/22 21:05:37;;;;;;;16.40;7.50;;;;;;;13.31;70.48;98881.11;274072;1267;23224;-83
2023/05/22 21:11:37;;;;;;;12.30;7.20;;;;;;;13.13;70.33;98877.44;274007;1266;23407;-83
2023/05/22 21:17:38;;;;;;;12.70;7.50;;;;;;;12.97;71.18;98875.77;273123;1266;22303;-84
2023/05/22 21:23:39;;;;;;;14.90;7.90;;;;;;;12.85;71.02;98869.65;272341;1260;23219;-83
2023/05/22 21:29:40;;;;;;;13.00;7.80;;;;;;;12.75;71.52;98873.41;272803;1263;24259;-83
2023/05/22 21:35:41;;;;;;;12.40;7.80;;;;;;;12.66;72.41;98872.08;272615;1267;22319;-83
2023/05/22 21:41:43;;;;;;;25.30;7.40;;;;;;;12.49;72.96;98868.92;272938;1260;22918;-83
2023/05/22 21:47:45;;;;;;;14.50;7.30;;;;;;;12.30;73.42;98864.16;272435;1259;22379;-83
2023/05/22 21:53:48;;;;;;;12.70;6.90;;;;;;;12.19;73.66;98865.23;272887;1266;23356;-83
2023/05/22 21:59:50;;;;;;;12.60;7.20;;;;;;;12.10;75.04;98861.77;272326;1263;122058;-83
2023/05/22 22:05:51;;;;;;;17.70;8.80;;;;;;;11.95;75.27;98862.43;271455;1260;22233;-83
2023/05/22 22:11:52;;;;;;;12.60;8.80;;;;;;;11.85;75.20;98852.36;272751;1267;22717;-83
2023/05/22 22:17:56;;;;;;;12.50;8.30;;;;;;;11.78;75.97;98854.99;273779;1266;23503;-84
2023/05/22 22:23:58;;;;;;;12.70;8.80;;;;;;;11.68;76.80;98863.88;273528;1267;23180;-85
2023/05/22 22:29:59;;;;;;;14.70;9.30;;;;;;;11.60;77.08;98865.31;274083;1267;22367;-85
2023/05/22 22:36:00;;;;;;;17.40;9.60;;;;;;;11.52;77.28;98861.73;272303;1266;22557;-84
2023/05/22 22:42:03;;;;;;;15.70;9.80;;;;;;;11.49;77.54;98858.91;272706;1267;22315;-85
2023/05/22 22:48:05;;;;;;;17.10;10.10;;;;;;;11.42;77.88;98857.84;272991;1264;22587;-84
2023/05/22 22:54:06;;;;;;;16.10;8.70;;;;;;;11.33;78.14;98855.61;271725;1266;22586;-85
2023/05/22 23:00:08;;;;;;;18.00;9.70;;;;;;;11.25;78.41;98851.80;271908;1266;24255;-85
2023/05/22 23:06:08;;;;;;;20.10;9.40;;;;;;;11.13;78.74;98850.70;271361;1251;23402;-85
2023/05/22 23:12:09;;;;;;;19.30;10.50;;;;;;;11.06;79.26;98851.45;272200;1269;22460;-84
2023/05/22 23:18:12;;;;;;;16.70;10.80;;;;;;;11.13;79.88;98851.10;272757;1256;23160;-84
2023/05/22 23:24:13;;;;;;;16.80;10.70;;;;;;;11.23;80.19;98850.14;271611;1270;22529;-83
2023/05/22 23:30:14;;;;;;;18.80;12.10;;;;;;;11.32;80.01;98841.42;273349;1267;22478;-84
2023/05/22 23:36:15;;;;;;;18.00;12.30;;;;;;;11.39;80.11;98833.02;274141;1266;23029;-85
2023/05/22 23:42:16;;;;;;;19.00;12.20;;;;;;;11.45;80.16;98827.95;273139;1267;23616;-85
2023/05/22 23:48:17;;;;;;;18.70;10.90;;;;;;;11.51;80.30;98831.81;271615;1267;22240;-84
2023/05/22 23:54:18;;;;;;;18.50;11.80;;;;;;;11.53;80.37;98833.16;274203;1264;22376;-85
